createdAt,value
2018-03-19T00:00:53.884Z,-3.80
2018-03-19T00:01:54.031Z,-3.82
2018-03-19T00:02:54.172Z,-3.72
2018-03-19T00:03:54.317Z,-3.77
2018-03-19T00:04:54.470Z,-3.91
2018-03-19T00:05:54.599Z,-3.82
2018-03-19T00:06:54.748Z,-3.77
2018-03-19T00:07:54.888Z,-3.80
2018-03-19T00:08:55.027Z,-3.72
2018-03-19T00:09:55.169Z,-3.85
2018-03-19T00:10:55.323Z,-3.85
2018-03-19T00:11:55.453Z,-3.75
2018-03-19T00:12:55.599Z,-3.77
2018-03-19T00:13:55.742Z,-3.83
2018-03-19T00:14:55.877Z,-3.80
2018-03-19T00:15:56.020Z,-3.75
2018-03-19T00:16:56.170Z,-3.69
2018-03-19T00:17:56.308Z,-3.88
2018-03-19T00:18:56.454Z,-3.92
2018-03-19T00:19:56.605Z,-3.85
2018-03-19T00:20:56.729Z,-3.86
2018-03-19T00:21:56.872Z,-3.89
2018-03-19T00:22:57.019Z,-3.95
2018-03-19T00:23:57.158Z,-3.99
2018-03-19T00:24:57.300Z,-3.95
2018-03-19T00:25:57.702Z,-4.03
2018-03-19T00:26:57.589Z,-3.93
2018-03-19T00:27:57.735Z,-4.02
2018-03-19T00:28:57.881Z,-4.03
2018-03-19T00:29:58.020Z,-4.06
2018-03-19T00:30:58.164Z,-4.03
2018-03-19T00:31:58.308Z,-3.96
2018-03-19T00:32:58.448Z,-3.96
2018-03-19T00:33:58.589Z,-3.96
2018-03-19T00:34:58.737Z,-3.99
2018-03-19T00:35:58.892Z,-4.13
2018-03-19T00:36:59.022Z,-4.17
2018-03-19T00:37:59.167Z,-4.10
2018-03-19T00:38:59.318Z,-4.02
2018-03-19T00:39:59.455Z,-4.16
2018-03-19T00:40:59.846Z,-4.13
2018-03-19T00:41:59.753Z,-4.10
2018-03-19T00:42:59.884Z,-4.09
2018-03-19T00:44:00.040Z,-4.16
2018-03-19T00:45:00.172Z,-4.06
2018-03-19T00:46:00.313Z,-4.17
2018-03-19T00:47:00.480Z,-4.10
2018-03-19T00:48:00.609Z,-4.13
2018-03-19T00:49:00.738Z,-4.20
2018-03-19T00:50:00.882Z,-4.07
2018-03-19T00:51:01.025Z,-4.12
2018-03-19T00:52:01.168Z,-4.14
2018-03-19T00:53:01.316Z,-4.16
2018-03-19T00:54:01.453Z,-4.22
2018-03-19T00:55:01.594Z,-4.16
2018-03-19T00:56:01.744Z,-4.13
2018-03-19T00:57:01.883Z,-4.17
2018-03-19T00:58:02.025Z,-4.17
2018-03-19T00:59:02.180Z,-4.09
2018-03-19T01:00:02.315Z,-4.14
2018-03-19T01:01:02.453Z,-4.07
2018-03-19T01:02:02.611Z,-4.21
2018-03-19T01:03:02.745Z,-4.14
2018-03-19T01:04:02.890Z,-4.21
2018-03-19T01:05:03.031Z,-4.17
2018-03-19T01:06:03.179Z,-4.16
2018-03-19T01:07:03.316Z,-4.22
2018-03-19T01:08:03.465Z,-4.14
2018-03-19T01:09:03.604Z,-4.20
2018-03-19T01:10:03.748Z,-4.14
2018-03-19T01:12:04.028Z,-4.20
2018-03-19T01:13:04.169Z,-4.14
2018-03-19T01:14:04.665Z,-4.30
2018-03-19T01:15:04.454Z,-4.17
2018-03-19T01:16:04.598Z,-4.17
2018-03-19T01:17:04.744Z,-4.13
2018-03-19T01:18:04.887Z,-4.35
2018-03-19T01:19:05.032Z,-4.22
2018-03-19T01:20:05.171Z,-4.30
2018-03-19T01:21:05.315Z,-4.31
2018-03-19T01:22:05.460Z,-4.21
2018-03-19T01:23:05.600Z,-4.32
2018-03-19T01:24:05.745Z,-4.25
2018-03-19T01:25:05.886Z,-4.21
2018-03-19T01:26:06.040Z,-4.28
2018-03-19T01:27:06.175Z,-4.24
2018-03-19T01:28:06.325Z,-4.22
2018-03-19T01:29:06.463Z,-4.27
2018-03-19T01:30:06.600Z,-4.22
2018-03-19T01:31:06.747Z,-4.28
2018-03-19T01:32:06.896Z,-4.32
2018-03-19T01:33:07.030Z,-4.27
2018-03-19T01:34:07.176Z,-4.25
2018-03-19T01:35:07.329Z,-4.28
2018-03-19T01:36:07.461Z,-4.21
2018-03-19T01:37:07.600Z,-4.28
2018-03-19T01:38:07.753Z,-4.28
2018-03-19T01:39:07.887Z,-4.28
2018-03-19T01:40:08.029Z,-4.22
2018-03-19T01:41:08.187Z,-4.25
2018-03-19T01:42:08.325Z,-4.31
2018-03-19T01:43:08.462Z,-4.25
2018-03-19T01:44:08.607Z,-4.25
2018-03-19T01:45:08.749Z,-4.16
2018-03-19T01:46:08.890Z,-4.28
2018-03-19T01:47:09.034Z,-4.21
2018-03-19T01:48:09.177Z,-4.16
2018-03-19T01:49:09.325Z,-4.25
2018-03-19T01:50:09.494Z,-4.30
2018-03-19T01:51:09.616Z,-4.31
2018-03-19T01:52:09.752Z,-4.25
2018-03-19T01:54:10.027Z,-4.13
2018-03-19T01:55:10.170Z,-4.27
2018-03-19T01:56:10.313Z,-4.27
2018-03-19T01:57:10.456Z,-4.24
2018-03-19T01:58:10.604Z,-4.21
2018-03-19T01:59:10.743Z,-4.28
2018-03-19T02:00:10.885Z,-4.30
2018-03-19T02:01:11.039Z,-4.27
2018-03-19T02:02:11.172Z,-4.25
2018-03-19T02:03:11.317Z,-4.38
2018-03-19T02:04:11.460Z,-4.28
2018-03-19T02:05:11.627Z,-4.28
2018-03-19T02:06:11.737Z,-4.25
2018-03-19T02:07:11.883Z,-4.27
2018-03-19T02:08:12.393Z,-4.34
2018-03-19T02:09:12.167Z,-4.31
2018-03-19T02:10:12.310Z,-4.35
2018-03-19T02:11:12.459Z,-4.27
2018-03-19T02:12:12.597Z,-4.31
2018-03-19T02:13:12.741Z,-4.39
2018-03-19T02:14:12.885Z,-4.38
2018-03-19T02:15:13.023Z,-4.35
2018-03-19T02:16:13.168Z,-4.32
2018-03-19T02:17:13.311Z,-4.30
2018-03-19T02:18:13.453Z,-4.39
2018-03-19T02:19:13.600Z,-4.24
2018-03-19T02:20:14.013Z,-4.32
2018-03-19T02:21:13.881Z,-4.30
2018-03-19T02:22:14.044Z,-4.34
2018-03-19T02:23:14.183Z,-4.32
2018-03-19T02:24:14.311Z,-4.35
2018-03-19T02:25:14.461Z,-4.31
2018-03-19T02:26:14.606Z,-4.34
2018-03-19T02:27:14.746Z,-4.30
2018-03-19T02:28:14.891Z,-4.30
2018-03-19T02:29:15.026Z,-4.30
2018-03-19T02:30:15.171Z,-4.30
2018-03-19T02:31:15.315Z,-4.35
2018-03-19T02:32:15.461Z,-4.31
2018-03-19T02:33:15.603Z,-4.35
2018-03-19T02:34:15.750Z,-4.32
2018-03-19T02:35:15.895Z,-4.24
2018-03-19T02:36:16.041Z,-4.35
2018-03-19T02:37:16.180Z,-4.32
2018-03-19T02:38:16.329Z,-4.27
2018-03-19T02:39:16.465Z,-4.27
2018-03-19T02:40:16.603Z,-4.30
2018-03-19T02:41:16.759Z,-4.31
2018-03-19T02:42:16.897Z,-4.35
2018-03-19T02:43:17.033Z,-4.30
2018-03-19T02:44:17.175Z,-4.28
2018-03-19T02:45:17.319Z,-4.27
2018-03-19T02:46:17.462Z,-4.32
2018-03-19T02:47:17.654Z,-4.31
2018-03-19T02:48:17.765Z,-4.39
2018-03-19T02:49:17.915Z,-4.34
2018-03-19T02:50:18.058Z,-4.24
2018-03-19T02:51:18.199Z,-4.25
2018-03-19T02:52:18.340Z,-4.34
2018-03-19T02:53:18.479Z,-4.28
2018-03-19T02:54:18.623Z,-4.30
2018-03-19T02:55:18.766Z,-4.27
2018-03-19T02:56:18.909Z,-4.35
2018-03-19T02:57:19.061Z,-4.27
2018-03-19T02:58:19.203Z,-4.27
2018-03-19T02:59:19.343Z,-4.25
2018-03-19T03:00:19.487Z,-4.31
2018-03-19T03:01:19.631Z,-4.34
2018-03-19T03:02:19.772Z,-4.34
2018-03-19T03:03:19.914Z,-4.31
2018-03-19T03:04:20.060Z,-4.41
2018-03-19T03:06:20.342Z,-4.43
2018-03-19T03:07:20.486Z,-4.34
2018-03-19T03:08:20.633Z,-4.39
2018-03-19T03:09:20.764Z,-4.35
2018-03-19T03:10:20.908Z,-4.42
2018-03-19T03:11:21.051Z,-4.48
2018-03-19T03:12:21.192Z,-4.50
2018-03-19T03:13:21.338Z,-4.48
2018-03-19T03:14:21.485Z,-4.48
2018-03-19T03:15:21.626Z,-4.52
2018-03-19T03:16:21.766Z,-4.49
2018-03-19T03:17:22.004Z,-4.50
2018-03-19T03:18:22.052Z,-4.53
2018-03-19T03:19:22.192Z,-4.61
2018-03-19T03:20:22.339Z,-4.48
2018-03-19T03:21:22.476Z,-4.50
2018-03-19T03:22:22.620Z,-4.63
2018-03-19T03:23:22.764Z,-4.64
2018-03-19T03:24:22.911Z,-4.53
2018-03-19T03:25:23.050Z,-4.59
2018-03-19T03:26:23.203Z,-4.59
2018-03-19T03:27:23.339Z,-4.60
2018-03-19T03:28:23.481Z,-4.52
2018-03-19T03:29:23.636Z,-4.61
2018-03-19T03:30:23.760Z,-4.50
2018-03-19T03:31:23.905Z,-4.59
2018-03-19T03:33:24.183Z,-4.63
2018-03-19T03:34:24.331Z,-4.50
2018-03-19T03:35:24.471Z,-4.49
2018-03-19T03:36:24.612Z,-4.55
2018-03-19T03:37:24.755Z,-4.61
2018-03-19T03:38:24.897Z,-4.60
2018-03-19T03:39:25.044Z,-4.52
2018-03-19T03:40:25.184Z,-4.45
2018-03-19T03:41:25.331Z,-4.48
2018-03-19T03:42:25.469Z,-4.64
2018-03-19T03:43:25.616Z,-4.55
2018-03-19T03:44:26.155Z,-4.55
2018-03-19T03:45:25.906Z,-4.60
2018-03-19T03:46:26.039Z,-4.61
2018-03-19T03:47:26.187Z,-4.59
2018-03-19T03:48:26.329Z,-4.67
2018-03-19T03:49:26.471Z,-4.61
2018-03-19T03:50:26.616Z,-4.70
2018-03-19T03:51:26.761Z,-4.78
2018-03-19T03:52:26.899Z,-4.79
2018-03-19T03:53:27.046Z,-4.95
2018-03-19T03:54:27.185Z,-4.98
2018-03-19T03:55:27.333Z,-4.81
2018-03-19T03:56:27.958Z,-4.87
2018-03-19T03:57:27.620Z,-4.81
2018-03-19T03:58:27.762Z,-4.84
2018-03-19T03:59:27.905Z,-4.82
2018-03-19T04:00:28.047Z,-4.91
2018-03-19T04:01:28.194Z,-4.99
2018-03-19T04:02:28.343Z,-4.87
2018-03-19T04:03:28.481Z,-4.87
2018-03-19T04:04:28.623Z,-4.79
2018-03-19T04:05:28.765Z,-4.89
2018-03-19T04:06:28.910Z,-4.89
2018-03-19T04:07:29.056Z,-4.89
2018-03-19T04:08:29.195Z,-4.99
2018-03-19T04:09:29.335Z,-4.91
2018-03-19T04:10:29.481Z,-5.02
2018-03-19T04:11:29.645Z,-4.87
2018-03-19T04:12:29.769Z,-4.98
2018-03-19T04:13:29.902Z,-4.98
2018-03-19T04:14:30.191Z,-5.02
2018-03-19T04:15:30.191Z,-5.06
2018-03-19T04:16:30.327Z,-5.02
2018-03-19T04:17:30.850Z,-5.02
2018-03-19T04:18:30.621Z,-5.03
2018-03-19T04:19:30.764Z,-4.99
2018-03-19T04:20:30.903Z,-5.03
2018-03-19T04:21:31.046Z,-4.96
2018-03-19T04:22:31.191Z,-5.02
2018-03-19T04:23:31.331Z,-5.00
2018-03-19T04:24:31.474Z,-5.05
2018-03-19T04:25:31.617Z,-5.06
2018-03-19T04:26:32.062Z,-5.14
2018-03-19T04:27:31.900Z,-5.13
2018-03-19T04:28:32.052Z,-5.10
2018-03-19T04:29:32.197Z,-5.19
2018-03-19T04:30:32.333Z,-5.14
2018-03-19T04:31:32.474Z,-5.05
2018-03-19T04:32:32.625Z,-5.24
2018-03-19T04:33:32.758Z,-5.21
2018-03-19T04:34:32.902Z,-5.14
2018-03-19T04:35:33.046Z,-5.19
2018-03-19T04:36:33.185Z,-5.10
2018-03-19T04:37:33.328Z,-5.14
2018-03-19T04:38:33.477Z,-5.17
2018-03-19T04:39:33.614Z,-5.13
2018-03-19T04:40:33.755Z,-5.14
2018-03-19T04:41:33.912Z,-5.25
2018-03-19T04:42:34.039Z,-5.13
2018-03-19T04:43:34.186Z,-5.27
2018-03-19T04:44:34.327Z,-5.33
2018-03-19T04:45:34.466Z,-5.39
2018-03-19T04:46:34.613Z,-5.31
2018-03-19T04:47:34.754Z,-5.35
2018-03-19T04:48:34.906Z,-5.42
2018-03-19T04:49:35.038Z,-5.35
2018-03-19T04:50:35.181Z,-5.38
2018-03-19T04:51:35.327Z,-5.39
2018-03-19T04:52:35.472Z,-5.40
2018-03-19T04:53:35.615Z,-5.42
2018-03-19T04:54:35.756Z,-5.42
2018-03-19T04:55:35.898Z,-5.33
2018-03-19T04:56:36.292Z,-5.53
2018-03-19T04:57:36.185Z,-5.51
2018-03-19T04:58:36.328Z,-5.47
2018-03-19T04:59:36.471Z,-5.43
2018-03-19T05:00:36.610Z,-5.47
2018-03-19T05:01:36.760Z,-5.43
2018-03-19T05:02:36.893Z,-5.36
2018-03-19T05:03:37.036Z,-5.42
2018-03-19T05:04:37.177Z,-5.51
2018-03-19T05:05:37.321Z,-5.43
2018-03-19T05:06:37.464Z,-5.43
2018-03-19T05:07:37.609Z,-5.40
2018-03-19T05:08:37.990Z,-5.39
2018-03-19T05:09:37.891Z,-5.47
2018-03-19T05:10:38.029Z,-5.43
2018-03-19T05:11:38.178Z,-5.53
2018-03-19T05:12:38.321Z,-5.43
2018-03-19T05:13:38.460Z,-5.43
2018-03-19T05:14:38.850Z,-5.60
2018-03-19T05:15:38.744Z,-5.53
2018-03-19T05:16:38.879Z,-5.54
2018-03-19T05:17:39.061Z,-5.51
2018-03-19T05:18:39.159Z,-5.58
2018-03-19T05:19:39.303Z,-5.53
2018-03-19T05:20:39.448Z,-5.61
2018-03-19T05:21:39.590Z,-5.57
2018-03-19T05:22:39.729Z,-5.54
2018-03-19T05:23:40.115Z,-5.56
2018-03-19T05:24:40.013Z,-5.60
2018-03-19T05:25:40.159Z,-5.57
2018-03-19T05:26:40.547Z,-5.60
2018-03-19T05:27:40.438Z,-5.61
2018-03-19T05:28:40.584Z,-5.53
2018-03-19T05:29:40.727Z,-5.51
2018-03-19T05:30:40.870Z,-5.56
2018-03-19T05:31:41.010Z,-5.54
2018-03-19T05:32:41.149Z,-5.54
2018-03-19T05:33:41.292Z,-5.51
2018-03-19T05:34:41.435Z,-5.46
2018-03-19T05:35:41.577Z,-5.54
2018-03-19T05:36:41.713Z,-5.47
2018-03-19T05:37:41.852Z,-5.47
2018-03-19T05:38:41.992Z,-5.42
2018-03-19T05:39:42.139Z,-5.47
2018-03-19T05:40:42.281Z,-5.57
2018-03-19T05:41:42.425Z,-5.56
2018-03-19T05:42:42.566Z,-5.47
2018-03-19T05:43:42.710Z,-5.56
2018-03-19T05:44:42.853Z,-5.56
2018-03-19T05:45:42.996Z,-5.58
2018-03-19T05:46:43.142Z,-5.64
2018-03-19T05:47:43.283Z,-5.60
2018-03-19T05:48:43.423Z,-5.56
2018-03-19T05:49:43.567Z,-5.56
2018-03-19T05:50:43.710Z,-5.51
2018-03-19T05:51:43.849Z,-5.46
2018-03-19T05:52:43.994Z,-5.54
2018-03-19T05:53:44.135Z,-5.51
2018-03-19T05:54:44.285Z,-5.53
2018-03-19T05:55:44.420Z,-5.47
2018-03-19T05:56:44.572Z,-5.45
2018-03-19T05:57:44.709Z,-5.29
2018-03-19T05:58:44.849Z,-5.36
2018-03-19T05:59:44.995Z,-5.29
2018-03-19T06:00:45.134Z,-5.33
2018-03-19T06:01:45.276Z,-5.35
2018-03-19T06:02:45.422Z,-5.38
2018-03-19T06:03:45.565Z,-5.31
2018-03-19T06:04:45.709Z,-5.31
2018-03-19T06:05:45.852Z,-5.36
2018-03-19T06:06:46.000Z,-5.28
2018-03-19T06:07:46.137Z,-5.24
2018-03-19T06:08:46.277Z,-5.18
2018-03-19T06:09:46.419Z,-5.18
2018-03-19T06:10:46.563Z,-5.22
2018-03-19T06:11:46.706Z,-5.17
2018-03-19T06:12:46.849Z,-5.22
2018-03-19T06:13:47.000Z,-5.19
2018-03-19T06:14:47.132Z,-5.02
2018-03-19T06:15:47.276Z,-5.09
2018-03-19T06:16:47.418Z,-5.06
2018-03-19T06:17:47.559Z,-5.09
2018-03-19T06:18:47.702Z,-5.09
2018-03-19T06:19:47.844Z,-5.08
2018-03-19T06:20:47.990Z,-5.10
2018-03-19T06:21:48.151Z,-5.09
2018-03-19T06:22:48.293Z,-5.02
2018-03-19T06:23:48.447Z,-4.99
2018-03-19T06:24:48.577Z,-4.91
2018-03-19T06:25:48.730Z,-4.89
2018-03-19T06:26:48.881Z,-4.87
2018-03-19T06:27:49.012Z,-4.78
2018-03-19T06:28:49.151Z,-4.88
2018-03-19T06:29:49.314Z,-4.84
2018-03-19T06:30:49.449Z,-4.79
2018-03-19T06:31:49.593Z,-4.78
2018-03-19T06:32:49.987Z,-4.85
2018-03-19T06:33:49.889Z,-4.88
2018-03-19T06:34:50.018Z,-4.82
2018-03-19T06:35:50.421Z,-4.78
2018-03-19T06:36:50.304Z,-4.75
2018-03-19T06:37:50.456Z,-4.64
2018-03-19T06:38:50.604Z,-4.70
2018-03-19T06:39:50.748Z,-4.61
2018-03-19T06:40:50.892Z,-4.59
2018-03-19T06:41:51.035Z,-4.49
2018-03-19T06:42:51.179Z,-4.45
2018-03-19T06:43:51.325Z,-4.45
2018-03-19T06:44:51.474Z,-4.42
2018-03-19T06:45:51.613Z,-4.38
2018-03-19T06:46:51.759Z,-4.39
2018-03-19T06:47:52.159Z,-4.45
2018-03-19T06:48:52.049Z,-4.46
2018-03-19T06:49:52.194Z,-4.41
2018-03-19T06:50:52.337Z,-4.35
2018-03-19T06:51:52.476Z,-4.30
2018-03-19T06:52:52.623Z,-4.30
2018-03-19T06:53:52.767Z,-4.13
2018-03-19T06:54:52.908Z,-4.30
2018-03-19T06:55:53.054Z,-4.35
2018-03-19T06:56:53.197Z,-4.30
2018-03-19T06:57:53.336Z,-4.24
2018-03-19T06:58:53.479Z,-4.22
2018-03-19T06:59:53.624Z,-4.12
2018-03-19T07:00:53.784Z,-4.16
2018-03-19T07:01:53.911Z,-4.17
2018-03-19T07:02:54.304Z,-4.28
2018-03-19T07:03:54.211Z,-4.20
2018-03-19T07:04:54.347Z,-4.34
2018-03-19T07:05:54.491Z,-4.16
2018-03-19T07:06:54.635Z,-4.20
2018-03-19T07:07:54.777Z,-4.22
2018-03-19T07:08:54.934Z,-4.30
2018-03-19T07:09:55.067Z,-4.32
2018-03-19T07:10:55.206Z,-4.30
2018-03-19T07:11:55.349Z,-4.28
2018-03-19T07:12:55.491Z,-4.27
2018-03-19T07:13:55.640Z,-4.14
2018-03-19T07:14:56.034Z,-4.13
2018-03-19T07:15:55.924Z,-4.04
2018-03-19T07:16:56.076Z,-3.95
2018-03-19T07:17:56.273Z,-4.10
2018-03-19T07:18:56.355Z,-4.06
2018-03-19T07:19:56.500Z,-4.07
2018-03-19T07:20:56.650Z,-3.95
2018-03-19T07:21:56.788Z,-3.98
2018-03-19T07:22:56.931Z,-3.89
2018-03-19T07:23:57.074Z,-3.95
2018-03-19T07:24:57.218Z,-3.80
2018-03-19T07:25:57.362Z,-3.64
2018-03-19T07:26:57.512Z,-3.66
2018-03-19T07:27:57.704Z,-3.64
2018-03-19T07:28:57.806Z,-3.72
2018-03-19T07:29:57.946Z,-3.59
2018-03-19T07:30:58.083Z,-3.44
2018-03-19T07:31:58.226Z,-3.35
2018-03-19T07:32:58.375Z,-3.45
2018-03-19T07:33:58.516Z,-3.40
2018-03-19T07:34:58.662Z,-3.13
2018-03-19T07:35:58.803Z,-3.17
2018-03-19T07:36:58.958Z,-3.07
2018-03-19T07:37:59.096Z,-3.01
2018-03-19T07:38:59.242Z,-2.80
2018-03-19T07:39:59.386Z,-2.74
2018-03-19T07:40:59.547Z,-2.70
2018-03-19T07:41:59.681Z,-2.83
2018-03-19T07:42:59.814Z,-2.84
2018-03-19T07:43:59.960Z,-2.88
2018-03-19T07:46:00.240Z,-2.84
2018-03-19T07:47:00.393Z,-2.77
2018-03-19T07:48:00.531Z,-2.70
2018-03-19T07:49:00.684Z,-2.86
2018-03-19T07:50:00.834Z,-2.63
2018-03-19T07:51:00.974Z,-2.78
2018-03-19T07:52:01.122Z,-2.69
2018-03-19T07:53:01.273Z,-2.69
2018-03-19T07:54:01.409Z,-2.60
2018-03-19T07:55:01.657Z,-2.37
2018-03-19T07:56:01.769Z,-2.30
2018-03-19T07:57:01.915Z,-2.26
2018-03-19T07:58:02.058Z,-2.44
2018-03-19T07:59:02.215Z,-2.52
2018-03-19T08:00:02.358Z,-2.42
2018-03-19T08:01:02.495Z,-2.26
2018-03-19T08:02:02.642Z,-2.00
2018-03-19T08:03:02.787Z,-2.04
2018-03-19T08:04:02.937Z,-2.02
2018-03-19T08:05:03.084Z,-2.00
2018-03-19T08:06:03.230Z,-1.87
2018-03-19T08:07:03.373Z,-1.86
2018-03-19T08:08:03.521Z,-1.87
2018-03-19T08:09:03.670Z,-2.00
2018-03-19T08:10:03.815Z,-2.00
2018-03-19T08:11:03.977Z,-2.18
2018-03-19T08:12:04.167Z,-2.26
2018-03-19T08:13:04.255Z,-2.18
2018-03-19T08:14:04.405Z,-2.08
2018-03-19T08:15:04.556Z,-1.94
2018-03-19T08:16:04.719Z,-1.83
2018-03-19T08:17:04.853Z,-1.69
2018-03-19T08:18:05.001Z,-1.65
2018-03-19T08:19:05.145Z,-1.62
2018-03-19T08:20:05.306Z,-1.71
2018-03-19T08:21:05.435Z,-2.04
2018-03-19T08:22:05.590Z,-1.94
2018-03-19T08:23:05.733Z,-1.97
2018-03-19T08:24:05.875Z,-1.82
2018-03-19T08:25:06.017Z,-1.47
2018-03-19T08:26:06.164Z,-1.48
2018-03-19T08:27:06.312Z,-1.43
2018-03-19T08:28:06.461Z,-1.19
2018-03-19T08:29:06.607Z,-1.29
2018-03-19T08:30:06.751Z,-1.33
2018-03-19T08:31:06.899Z,-1.26
2018-03-19T08:32:07.044Z,-1.02
2018-03-19T08:33:07.192Z,-1.05
2018-03-19T08:34:07.335Z,-0.91
2018-03-19T08:35:07.485Z,-1.04
2018-03-19T08:36:07.658Z,-0.99
2018-03-19T08:37:07.776Z,-1.02
2018-03-19T08:38:07.922Z,-1.04
2018-03-19T08:39:08.070Z,-0.77
2018-03-19T08:40:08.466Z,-0.67
2018-03-19T08:41:08.371Z,-0.56
2018-03-19T08:42:08.520Z,-0.47
2018-03-19T08:43:08.665Z,-0.38
2018-03-19T08:44:08.809Z,-0.20
2018-03-19T08:45:08.960Z,-0.18
2018-03-19T08:46:09.107Z,-0.41
2018-03-19T08:47:09.250Z,-0.53
2018-03-19T08:48:09.399Z,-0.94
2018-03-19T08:49:09.555Z,-0.91
2018-03-19T08:50:09.692Z,-0.78
2018-03-19T08:51:09.840Z,-0.68
2018-03-19T08:52:10.268Z,-0.94
2018-03-19T08:53:10.139Z,-0.78
2018-03-19T08:54:10.282Z,-1.05
2018-03-19T08:55:10.430Z,-1.05
2018-03-19T08:56:10.575Z,-1.14
2018-03-19T08:57:10.723Z,-1.01
2018-03-19T08:58:10.880Z,-1.08
2018-03-19T08:59:11.022Z,-1.01
2018-03-19T09:00:11.182Z,-0.71
2018-03-19T09:01:11.315Z,-0.44
2018-03-19T09:02:11.464Z,-0.50
2018-03-19T09:03:11.609Z,-0.61
2018-03-19T09:04:11.758Z,-0.53
2018-03-19T09:05:11.923Z,-0.47
2018-03-19T09:06:12.039Z,-0.26
2018-03-19T09:07:12.214Z,-0.15
2018-03-19T09:08:12.330Z,-0.41
2018-03-19T09:09:12.480Z,-0.54
2018-03-19T09:10:12.626Z,-0.75
2018-03-19T09:11:12.770Z,-0.83
2018-03-19T09:12:12.927Z,-0.90
2018-03-19T09:13:13.066Z,-0.77
2018-03-19T09:14:13.212Z,-0.72
2018-03-19T09:15:13.361Z,-0.41
2018-03-19T09:16:13.511Z,-0.43
2018-03-19T09:17:13.657Z,-0.50
2018-03-19T09:18:13.816Z,-0.96
2018-03-19T09:19:13.955Z,-1.23
2018-03-19T09:20:14.097Z,-1.33
2018-03-19T09:21:14.244Z,-1.12
2018-03-19T09:22:14.393Z,-1.11
2018-03-19T09:23:14.542Z,-1.08
2018-03-19T09:24:14.681Z,-1.37
2018-03-19T09:25:14.861Z,-1.20
2018-03-19T09:26:14.980Z,-1.17
2018-03-19T09:27:15.128Z,-1.15
2018-03-19T09:28:15.273Z,-1.07
2018-03-19T09:29:15.419Z,-1.11
2018-03-19T09:30:15.569Z,-1.12
2018-03-19T09:31:15.750Z,-0.86
2018-03-19T09:32:15.863Z,-0.72
2018-03-19T09:33:16.035Z,-0.85
2018-03-19T09:34:16.194Z,-0.94
2018-03-19T09:35:16.335Z,-0.52
2018-03-19T09:36:16.476Z,-0.70
2018-03-19T09:37:16.628Z,-0.78
2018-03-19T09:38:16.774Z,-0.59
2018-03-19T09:39:16.923Z,-0.38
2018-03-19T09:40:17.081Z,-0.29
2018-03-19T09:41:17.220Z,-0.17
2018-03-19T09:42:17.370Z,0.01
2018-03-19T09:43:17.518Z,-0.32
2018-03-19T09:44:17.667Z,-0.50
2018-03-19T09:45:17.810Z,-0.59
2018-03-19T09:46:17.966Z,-0.77
2018-03-19T09:47:18.104Z,-0.78
2018-03-19T09:48:18.323Z,-0.89
2018-03-19T09:49:18.401Z,-0.89
2018-03-19T09:50:18.556Z,-0.93
2018-03-19T09:51:18.696Z,-0.93
2018-03-19T09:52:18.844Z,-1.22
2018-03-19T09:53:18.998Z,-1.26
2018-03-19T09:54:19.141Z,-1.19
2018-03-19T09:55:19.294Z,-1.07
2018-03-19T09:56:19.688Z,-0.91
2018-03-19T09:57:19.586Z,-0.86
2018-03-19T09:58:19.730Z,-0.74
2018-03-19T09:59:19.967Z,-0.64
2018-03-19T10:00:20.025Z,-0.74
2018-03-19T10:01:20.177Z,-0.90
2018-03-19T10:02:20.337Z,-0.99
2018-03-19T10:03:20.458Z,-1.07
2018-03-19T10:04:20.614Z,-1.04
2018-03-19T10:05:20.755Z,-1.01
2018-03-19T10:06:20.901Z,-1.07
2018-03-19T10:07:21.050Z,-1.05
2018-03-19T10:08:21.195Z,-0.90
2018-03-19T10:09:21.342Z,-0.80
2018-03-19T10:10:21.496Z,-0.77
2018-03-19T10:11:21.637Z,-0.78
2018-03-19T10:12:21.784Z,-0.89
2018-03-19T10:13:21.935Z,-0.91
2018-03-19T10:14:22.078Z,-0.85
2018-03-19T10:15:22.276Z,-0.71
2018-03-19T10:16:22.369Z,-0.91
2018-03-19T10:17:22.518Z,-0.90
2018-03-19T10:18:22.662Z,-1.12
2018-03-19T10:19:22.811Z,-1.02
2018-03-19T10:20:22.954Z,-1.04
2018-03-19T10:21:23.118Z,-0.91
2018-03-19T10:22:23.251Z,-0.91
2018-03-19T10:23:23.399Z,-0.82
2018-03-19T10:24:23.528Z,-0.96
2018-03-19T10:25:23.677Z,-0.90
2018-03-19T10:26:23.819Z,-0.85
2018-03-19T10:27:23.968Z,-0.68
2018-03-19T10:28:24.118Z,-0.77
2018-03-19T10:29:24.269Z,-0.78
2018-03-19T10:30:24.419Z,-0.80
2018-03-19T10:31:24.554Z,-0.70
2018-03-19T10:32:24.702Z,-0.62
2018-03-19T10:33:24.906Z,-0.54
2018-03-19T10:34:24.993Z,-0.34
2018-03-19T10:35:25.144Z,-0.32
2018-03-19T10:36:25.284Z,-0.26
2018-03-19T10:37:25.427Z,-0.35
2018-03-19T10:38:25.579Z,-0.43
2018-03-19T10:39:25.720Z,-0.38
2018-03-19T10:40:25.871Z,-0.26
2018-03-19T10:41:26.018Z,-0.28
2018-03-19T10:42:26.160Z,-0.20
2018-03-19T10:43:26.300Z,-0.13
2018-03-19T10:44:26.533Z,-0.34
2018-03-19T10:45:26.588Z,-0.36
2018-03-19T10:46:26.734Z,-0.43
2018-03-19T10:47:26.882Z,-0.53
2018-03-19T10:48:27.017Z,-0.41
2018-03-19T10:49:27.153Z,-0.46
2018-03-19T10:50:27.300Z,-0.38
2018-03-19T10:51:27.447Z,-0.17
2018-03-19T10:52:27.603Z,-0.14
2018-03-19T10:53:27.757Z,-0.38
2018-03-19T10:54:27.896Z,-0.28
2018-03-19T10:55:28.046Z,-0.34
2018-03-19T10:56:28.196Z,-0.44
2018-03-19T10:57:28.344Z,-0.29
2018-03-19T10:58:28.493Z,-0.49
2018-03-19T10:59:28.641Z,-0.38
2018-03-19T11:00:28.786Z,-0.23
2018-03-19T11:01:28.934Z,-0.14
2018-03-19T11:02:29.093Z,0.04
2018-03-19T11:03:29.228Z,0.08
2018-03-19T11:04:29.383Z,0.05
2018-03-19T11:05:29.523Z,0.07
2018-03-19T11:06:29.680Z,-0.08
2018-03-19T11:07:29.820Z,0.04
2018-03-19T11:08:29.974Z,0.18
2018-03-19T11:09:30.127Z,0.16
2018-03-19T11:10:30.269Z,0.22
2018-03-19T11:11:30.416Z,0.22
2018-03-19T11:12:30.565Z,0.15
2018-03-19T11:13:30.700Z,0.05
2018-03-19T11:14:30.848Z,0.01
2018-03-19T11:15:30.989Z,0.08
2018-03-19T11:16:31.128Z,0.12
2018-03-19T11:17:31.280Z,0.22
2018-03-19T11:18:31.426Z,0.41
2018-03-19T11:19:31.566Z,0.39
2018-03-19T11:20:31.773Z,0.39
2018-03-19T11:21:31.861Z,0.23
2018-03-19T11:22:32.006Z,0.22
2018-03-19T11:23:32.154Z,0.36
2018-03-19T11:24:32.302Z,0.44
2018-03-19T11:25:32.449Z,0.44
2018-03-19T11:26:32.610Z,0.41
2018-03-19T11:27:32.764Z,0.49
2018-03-19T11:28:32.924Z,0.52
2018-03-19T11:29:33.061Z,0.39
2018-03-19T11:30:33.209Z,0.34
2018-03-19T11:31:33.349Z,0.49
2018-03-19T11:32:33.498Z,0.43
2018-03-19T11:33:33.891Z,0.50
2018-03-19T11:34:33.795Z,0.60
2018-03-19T11:35:33.939Z,0.66
2018-03-19T11:37:34.233Z,0.47
2018-03-19T11:38:34.373Z,0.47
2018-03-19T11:39:34.548Z,0.55
2018-03-19T11:40:34.664Z,0.43
2018-03-19T11:41:34.809Z,0.58
2018-03-19T11:42:34.956Z,0.49
2018-03-19T11:43:35.104Z,0.59
2018-03-19T11:44:35.261Z,0.62
2018-03-19T11:45:35.402Z,0.59
2018-03-19T11:46:35.561Z,0.78
2018-03-19T11:47:35.713Z,0.91
2018-03-19T11:48:35.854Z,0.96
2018-03-19T11:49:36.011Z,0.95
2018-03-19T11:50:36.156Z,0.78
2018-03-19T11:51:36.296Z,0.81
2018-03-19T11:52:36.449Z,0.77
2018-03-19T11:53:36.593Z,0.69
2018-03-19T11:54:36.738Z,0.78
2018-03-19T11:55:36.885Z,0.81
2018-03-19T11:56:37.038Z,0.91
2018-03-19T11:57:37.183Z,1.06
2018-03-19T11:58:37.334Z,0.99
2018-03-19T11:59:37.478Z,0.98
2018-03-19T12:00:37.639Z,0.99
2018-03-19T12:01:37.780Z,1.02
2018-03-19T12:02:37.923Z,0.94
2018-03-19T12:03:38.076Z,0.88
2018-03-19T12:04:38.217Z,0.86
2018-03-19T12:05:38.370Z,0.84
2018-03-19T12:06:38.521Z,0.91
2018-03-19T12:07:38.662Z,0.95
2018-03-19T12:08:38.809Z,1.01
2018-03-19T12:09:38.943Z,1.05
2018-03-19T12:10:39.109Z,1.06
2018-03-19T12:11:39.255Z,0.92
2018-03-19T12:12:39.402Z,0.80
2018-03-19T12:13:39.549Z,0.70
2018-03-19T12:14:39.711Z,0.78
2018-03-19T12:15:39.847Z,1.06
2018-03-19T12:16:39.994Z,1.16
2018-03-19T12:17:40.144Z,1.24
2018-03-19T12:18:40.287Z,1.28
2018-03-19T12:19:40.435Z,1.05
2018-03-19T12:20:40.583Z,1.16
2018-03-19T12:21:40.732Z,1.13
2018-03-19T12:22:40.878Z,0.99
2018-03-19T12:23:41.031Z,1.05
2018-03-19T12:24:41.169Z,1.16
2018-03-19T12:25:41.318Z,1.34
2018-03-19T12:26:41.493Z,1.35
2018-03-19T12:27:41.642Z,1.28
2018-03-19T12:28:41.795Z,1.38
2018-03-19T12:29:41.941Z,1.53
2018-03-19T12:30:42.082Z,1.37
2018-03-19T12:31:42.240Z,1.34
2018-03-19T12:32:42.390Z,1.37
2018-03-19T12:33:42.527Z,1.38
2018-03-19T12:34:42.925Z,1.49
2018-03-19T12:35:42.807Z,1.60
2018-03-19T12:36:42.961Z,1.58
2018-03-19T12:37:43.117Z,1.41
2018-03-19T12:38:43.258Z,1.38
2018-03-19T12:39:43.408Z,1.44
2018-03-19T12:40:43.568Z,1.26
2018-03-19T12:41:43.696Z,1.28
2018-03-19T12:42:43.845Z,1.31
2018-03-19T12:43:43.998Z,1.30
2018-03-19T12:44:44.141Z,1.31
2018-03-19T12:45:44.290Z,1.37
2018-03-19T12:47:44.581Z,1.66
2018-03-19T12:48:44.728Z,1.62
2018-03-19T12:49:44.889Z,1.66
2018-03-19T12:50:45.034Z,1.68
2018-03-19T12:51:45.192Z,1.68
2018-03-19T12:52:45.338Z,1.56
2018-03-19T12:53:45.482Z,1.56
2018-03-19T12:54:45.629Z,1.45
2018-03-19T12:55:45.778Z,1.56
2018-03-19T12:56:45.928Z,1.52
2018-03-19T12:57:46.070Z,1.41
2018-03-19T12:58:46.226Z,1.35
2018-03-19T12:59:46.365Z,1.44
2018-03-19T13:00:46.519Z,1.49
2018-03-19T13:01:46.673Z,1.50
2018-03-19T13:02:46.817Z,1.56
2018-03-19T13:03:46.973Z,1.66
2018-03-19T13:04:47.111Z,1.60
2018-03-19T13:05:47.256Z,1.70